sensor_id;sensor_type;location;lat;lon;timestamp;pressure;altitude;pressure_sealevel;temperature;humidity
69171;BME280;56279;47.902;12.308;2023-05-09T00:00:36;95734.13;;;11.10;72.20
69171;BME280;56279;47.902;12.308;2023-05-09T00:02:38;95738.63;;;11.10;72.56
69171;BME280;56279;47.902;12.308;2023-05-09T00:04:39;95739.94;;;11.07;72.34
69171;BME280;56279;47.902;12.308;2023-05-09T00:06:44;95735.72;;;11.06;72.27
69171;BME280;56279;47.902;12.308;2023-05-09T00:08:45;95728.88;;;11.05;72.38
69171;BME280;56279;47.902;12.308;2023-05-09T00:10:47;95729.91;;;11.04;72.38
69171;BME280;56279;47.902;12.308;2023-05-09T00:12:48;95729.91;;;11.04;72.52
69171;BME280;56279;47.902;12.308;2023-05-09T00:14:49;95732.56;;;11.04;72.46
69171;BME280;56279;47.902;12.308;2023-05-09T00:16:54;95728.88;;;11.05;72.50
69171;BME280;56279;47.902;12.308;2023-05-09T00:18:57;95729.13;;;11.04;72.20
69171;BME280;56279;47.902;12.308;2023-05-09T00:20:59;95721.75;;;11.01;72.40
69171;BME280;56279;47.902;12.308;2023-05-09T00:23:03;95724.41;;;11.01;72.39
69171;BME280;56279;47.902;12.308;2023-05-09T00:25:06;95724.41;;;11.01;72.48
69171;BME280;56279;47.902;12.308;2023-05-09T00:27:08;95724.63;;;10.99;72.33
69171;BME280;56279;47.902;12.308;2023-05-09T00:29:10;95725.72;;;10.98;72.60
69171;BME280;56279;47.902;12.308;2023-05-09T00:31:11;95716.19;;;10.97;72.45
69171;BME280;56279;47.902;12.308;2023-05-09T00:33:13;95715.41;;;10.97;72.51
69171;BME280;56279;47.902;12.308;2023-05-09T00:35:14;95717.28;;;10.96;72.81
69171;BME280;56279;47.902;12.308;2023-05-09T00:37:16;95712.00;;;10.96;72.51
69171;BME280;56279;47.902;12.308;2023-05-09T00:39:19;95706.72;;;10.96;72.86
69171;BME280;56279;47.902;12.308;2023-05-09T00:41:20;95706.97;;;10.95;73.00
69171;BME280;56279;47.902;12.308;2023-05-09T00:43:24;95709.88;;;10.93;73.23
69171;BME280;56279;47.902;12.308;2023-05-09T00:45:26;95699.59;;;10.92;72.99
69171;BME280;56279;47.902;12.308;2023-05-09T00:47:29;95697.22;;;10.90;73.02
69171;BME280;56279;47.902;12.308;2023-05-09T00:49:31;95700.13;;;10.89;73.43
69171;BME280;56279;47.902;12.308;2023-05-09T00:51:35;95691.94;;;10.85;73.77
69171;BME280;56279;47.902;12.308;2023-05-09T00:53:39;95695.13;;;10.82;73.70
69171;BME280;56279;47.902;12.308;2023-05-09T00:55:40;95688.25;;;10.81;73.63
69171;BME280;56279;47.902;12.308;2023-05-09T00:57:44;95689.34;;;10.80;73.81
69171;BME280;56279;47.902;12.308;2023-05-09T00:59:46;95696.72;;;10.78;73.79
69171;BME280;56279;47.902;12.308;2023-05-09T01:01:49;95692.50;;;10.77;73.88
69171;BME280;56279;47.902;12.308;2023-05-09T01:03:51;95699.13;;;10.75;74.17
69171;BME280;56279;47.902;12.308;2023-05-09T01:06:16;95696.19;;;10.71;74.15
69171;BME280;56279;47.902;12.308;2023-05-09T01:11:02;95690.16;;;10.66;74.10
69171;BME280;56279;47.902;12.308;2023-05-09T01:21:57;95676.19;;;10.60;74.73
69171;BME280;56279;47.902;12.308;2023-05-09T01:31:17;95670.94;;;10.50;75.03
69171;BME280;56279;47.902;12.308;2023-05-09T01:33:25;95673.03;;;10.48;75.27
69171;BME280;56279;47.902;12.308;2023-05-09T01:35:29;95670.66;;;10.47;75.45
69171;BME280;56279;47.902;12.308;2023-05-09T01:37:32;95670.94;;;10.45;75.72
69171;BME280;56279;47.902;12.308;2023-05-09T01:39:37;95665.66;;;10.45;75.74
69171;BME280;56279;47.902;12.308;2023-05-09T01:41:43;95672.78;;;10.45;75.73
69171;BME280;56279;47.902;12.308;2023-05-09T01:43:47;95664.34;;;10.43;75.82
69171;BME280;56279;47.902;12.308;2023-05-09T01:45:51;95661.72;;;10.37;75.97
69171;BME280;56279;47.902;12.308;2023-05-09T01:47:55;95664.88;;;10.34;76.30
69171;BME280;56279;47.902;12.308;2023-05-09T01:50:00;95664.09;;;10.34;76.16
69171;BME280;56279;47.902;12.308;2023-05-09T01:52:07;95665.16;;;10.33;76.36
69171;BME280;56279;47.902;12.308;2023-05-09T01:54:14;95660.69;;;10.33;76.37
69171;BME280;56279;47.902;12.308;2023-05-09T01:56:19;95659.59;;;10.34;76.14
69171;BME280;56279;47.902;12.308;2023-05-09T01:58:23;95658.81;;;10.34;76.30
69171;BME280;56279;47.902;12.308;2023-05-09T02:00:28;95651.69;;;10.29;76.52
69171;BME280;56279;47.902;12.308;2023-05-09T02:02:33;95664.13;;;10.29;76.75
69171;BME280;56279;47.902;12.308;2023-05-09T02:04:36;95662.53;;;10.28;76.77
69171;BME280;56279;47.902;12.308;2023-05-09T02:06:40;95652.25;;;10.26;76.74
69171;BME280;56279;47.902;12.308;2023-05-09T02:08:45;95660.41;;;10.25;76.58
69171;BME280;56279;47.902;12.308;2023-05-09T02:10:48;95651.19;;;10.22;76.80
69171;BME280;56279;47.902;12.308;2023-05-09T02:12:49;95650.94;;;10.19;76.78
69171;BME280;56279;47.902;12.308;2023-05-09T02:14:50;95647.25;;;10.15;76.75
69171;BME280;56279;47.902;12.308;2023-05-09T02:16:52;95651.97;;;10.13;76.67
69171;BME280;56279;47.902;12.308;2023-05-09T02:18:54;95649.06;;;10.09;76.55
69171;BME280;56279;47.902;12.308;2023-05-09T02:20:56;95648.81;;;10.06;76.63
69171;BME280;56279;47.902;12.308;2023-05-09T02:22:57;95649.59;;;10.01;77.03
69171;BME280;56279;47.902;12.308;2023-05-09T02:24:58;95646.19;;;9.96;76.83
69171;BME280;56279;47.902;12.308;2023-05-09T02:27:04;95643.25;;;9.92;76.95
69171;BME280;56279;47.902;12.308;2023-05-09T02:29:06;95649.31;;;9.88;77.00
69171;BME280;56279;47.902;12.308;2023-05-09T02:31:11;95651.72;;;9.84;77.26
69171;BME280;56279;47.902;12.308;2023-05-09T02:33:14;95648.78;;;9.81;77.73
69171;BME280;56279;47.902;12.308;2023-05-09T02:35:16;95646.72;;;9.78;77.68
69171;BME280;56279;47.902;12.308;2023-05-09T02:37:19;95644.88;;;9.73;77.65
69171;BME280;56279;47.902;12.308;2023-05-09T02:39:21;95643.00;;;9.68;78.10
69171;BME280;56279;47.902;12.308;2023-05-09T02:41:25;95636.94;;;9.63;78.21
69171;BME280;56279;47.902;12.308;2023-05-09T02:43:28;95638.78;;;9.57;78.29
69171;BME280;56279;47.902;12.308;2023-05-09T02:45:29;95633.50;;;9.52;78.75
69171;BME280;56279;47.902;12.308;2023-05-09T02:47:31;95637.72;;;9.48;78.58
69171;BME280;56279;47.902;12.308;2023-05-09T02:49:33;95640.84;;;9.45;79.19
69171;BME280;56279;47.902;12.308;2023-05-09T02:51:36;95642.16;;;9.43;79.21
69171;BME280;56279;47.902;12.308;2023-05-09T02:53:39;95641.91;;;9.39;79.33
69171;BME280;56279;47.902;12.308;2023-05-09T02:55:40;95637.69;;;9.38;79.53
69171;BME280;56279;47.902;12.308;2023-05-09T02:57:42;95640.88;;;9.35;79.38
69171;BME280;56279;47.902;12.308;2023-05-09T02:59:44;95634.50;;;9.31;79.65
69171;BME280;56279;47.902;12.308;2023-05-09T03:01:45;95638.47;;;9.29;79.66
69171;BME280;56279;47.902;12.308;2023-05-09T03:03:46;95639.78;;;9.26;79.89
69171;BME280;56279;47.902;12.308;2023-05-09T03:05:49;95642.66;;;9.25;80.02
69171;BME280;56279;47.902;12.308;2023-05-09T03:07:50;95637.94;;;9.22;79.97
69171;BME280;56279;47.902;12.308;2023-05-09T03:09:52;95635.03;;;9.18;80.22
69171;BME280;56279;47.902;12.308;2023-05-09T03:11:54;95631.88;;;9.16;80.21
69171;BME280;56279;47.902;12.308;2023-05-09T03:13:56;95627.63;;;9.15;80.26
69171;BME280;56279;47.902;12.308;2023-05-09T03:15:57;95630.53;;;9.14;80.61
69171;BME280;56279;47.902;12.308;2023-05-09T03:17:59;95625.53;;;9.12;80.75
69171;BME280;56279;47.902;12.308;2023-05-09T03:20:00;95632.66;;;9.12;81.00
69171;BME280;56279;47.902;12.308;2023-05-09T03:22:02;95631.84;;;9.11;81.05
69171;BME280;56279;47.902;12.308;2023-05-09T03:24:06;95636.59;;;9.09;81.18
69171;BME280;56279;47.902;12.308;2023-05-09T03:26:08;95632.34;;;9.08;80.80
69171;BME280;56279;47.902;12.308;2023-05-09T03:28:09;95633.66;;;9.05;81.31
69171;BME280;56279;47.902;12.308;2023-05-09T03:30:12;95631.28;;;9.04;81.47
69171;BME280;56279;47.902;12.308;2023-05-09T03:32:14;95633.66;;;9.00;81.37
69171;BME280;56279;47.902;12.308;2023-05-09T03:34:15;95626.28;;;8.97;81.90
69171;BME280;56279;47.902;12.308;2023-05-09T03:36:18;95624.97;;;8.95;81.52
69171;BME280;56279;47.902;12.308;2023-05-09T03:38:20;95623.63;;;8.92;81.79
69171;BME280;56279;47.902;12.308;2023-05-09T03:40:24;95620.47;;;8.90;82.20
69171;BME280;56279;47.902;12.308;2023-05-09T03:42:38;95629.41;;;8.89;82.02
69171;BME280;56279;47.902;12.308;2023-05-09T03:44:39;95631.50;;;8.87;82.14
69171;BME280;56279;47.902;12.308;2023-05-09T03:46:40;95632.31;;;8.88;82.21
69171;BME280;56279;47.902;12.308;2023-05-09T03:48:42;95630.72;;;8.87;82.50
69171;BME280;56279;47.902;12.308;2023-05-09T03:50:43;95627.03;;;8.88;82.41
69171;BME280;56279;47.902;12.308;2023-05-09T03:52:47;95626.25;;;8.87;82.12
69171;BME280;56279;47.902;12.308;2023-05-09T03:54:51;95634.94;;;8.88;82.63
69171;BME280;56279;47.902;12.308;2023-05-09T03:56:53;95632.31;;;8.88;82.41
69171;BME280;56279;47.902;12.308;2023-05-09T03:58:55;95627.84;;;8.88;82.08
69171;BME280;56279;47.902;12.308;2023-05-09T04:00:57;95629.16;;;8.91;82.14
69171;BME280;56279;47.902;12.308;2023-05-09T04:03:00;95627.56;;;8.90;81.98
69171;BME280;56279;47.902;12.308;2023-05-09T04:05:10;95629.69;;;8.93;82.11
69171;BME280;56279;47.902;12.308;2023-05-09T04:07:12;95630.50;;;8.93;82.61
69171;BME280;56279;47.902;12.308;2023-05-09T04:09:13;95633.38;;;8.97;82.67
69171;BME280;56279;47.902;12.308;2023-05-09T04:11:16;95626.53;;;9.01;82.40
69171;BME280;56279;47.902;12.308;2023-05-09T04:13:20;95626.84;;;9.04;82.25
69171;BME280;56279;47.902;12.308;2023-05-09T04:15:21;95630.00;;;9.07;82.47
69171;BME280;56279;47.902;12.308;2023-05-09T04:17:23;95630.00;;;9.07;82.56
69171;BME280;56279;47.902;12.308;2023-05-09T04:19:24;95629.19;;;9.06;82.79
69171;BME280;56279;47.902;12.308;2023-05-09T04:21:26;95620.50;;;9.05;82.74
69171;BME280;56279;47.902;12.308;2023-05-09T04:23:30;95625.25;;;9.03;82.67
69171;BME280;56279;47.902;12.308;2023-05-09T04:25:33;95631.28;;;9.04;82.87
69171;BME280;56279;47.902;12.308;2023-05-09T04:27:36;95614.97;;;9.02;83.02
69171;BME280;56279;47.902;12.308;2023-05-09T04:29:37;95624.72;;;9.01;83.13
69171;BME280;56279;47.902;12.308;2023-05-09T04:31:39;95625.78;;;9.00;83.12
69171;BME280;56279;47.902;12.308;2023-05-09T04:33:42;95627.09;;;9.03;82.68
69171;BME280;56279;47.902;12.308;2023-05-09T04:35:43;95617.63;;;9.07;82.68
69171;BME280;56279;47.902;12.308;2023-05-09T04:37:45;95621.84;;;9.13;82.74
69171;BME280;56279;47.902;12.308;2023-05-09T04:39:46;95618.44;;;9.18;82.77
69171;BME280;56279;47.902;12.308;2023-05-09T04:41:54;95615.81;;;9.23;82.45
69171;BME280;56279;47.902;12.308;2023-05-09T04:43:55;95614.50;;;9.25;82.28
69171;BME280;56279;47.902;12.308;2023-05-09T04:45:59;95625.84;;;9.31;82.11
69171;BME280;56279;47.902;12.308;2023-05-09T04:48:00;95618.47;;;9.38;82.29
69171;BME280;56279;47.902;12.308;2023-05-09T04:50:02;95623.22;;;9.46;82.22
69171;BME280;56279;47.902;12.308;2023-05-09T04:52:03;95624.56;;;9.53;82.38
69171;BME280;56279;47.902;12.308;2023-05-09T04:54:07;95618.22;;;9.59;81.83
69171;BME280;56279;47.902;12.308;2023-05-09T04:56:11;95620.34;;;9.67;81.43
69171;BME280;56279;47.902;12.308;2023-05-09T04:58:13;95621.66;;;9.75;81.42
69171;BME280;56279;47.902;12.308;2023-05-09T05:00:14;95627.47;;;9.82;81.34
69171;BME280;56279;47.902;12.308;2023-05-09T05:02:18;95620.34;;;9.88;81.36
69171;BME280;56279;47.902;12.308;2023-05-09T05:04:22;95623.75;;;9.93;81.41
69171;BME280;56279;47.902;12.308;2023-05-09T05:06:24;95626.13;;;9.95;81.03
69171;BME280;56279;47.902;12.308;2023-05-09T05:08:25;95620.84;;;10.00;80.73
69171;BME280;56279;47.902;12.308;2023-05-09T05:10:27;95618.78;;;10.12;80.47
69171;BME280;56279;47.902;12.308;2023-05-09T05:12:37;95616.38;;;10.15;80.21
69171;BME280;56279;47.902;12.308;2023-05-09T05:14:42;95617.69;;;10.18;80.46
69171;BME280;56279;47.902;12.308;2023-05-09T05:16:45;95608.47;;;10.20;80.43
69171;BME280;56279;47.902;12.308;2023-05-09T05:18:46;95613.22;;;10.23;80.55
69171;BME280;56279;47.902;12.308;2023-05-09T05:20:48;95610.03;;;10.31;80.33
69171;BME280;56279;47.902;12.308;2023-05-09T05:22:51;95605.22;;;10.43;79.95
69171;BME280;56279;47.902;12.308;2023-05-09T05:24:54;95610.22;;;10.55;79.59
69171;BME280;56279;47.902;12.308;2023-05-09T05:26:59;95609.94;;;10.62;79.78
69171;BME280;56279;47.902;12.308;2023-05-09T05:29:00;95606.75;;;10.70;79.37
69171;BME280;56279;47.902;12.308;2023-05-09T05:31:03;95607.00;;;10.73;79.19
69171;BME280;56279;47.902;12.308;2023-05-09T05:33:04;95609.03;;;10.86;78.94
69171;BME280;56279;47.902;12.308;2023-05-09T05:35:06;95597.56;;;11.11;78.23
69171;BME280;56279;47.902;12.308;2023-05-09T05:37:10;95600.44;;;11.20;77.80
69171;BME280;56279;47.902;12.308;2023-05-09T05:39:12;95600.66;;;11.23;77.97
69171;BME280;56279;47.902;12.308;2023-05-09T05:41:13;95594.03;;;11.26;77.92
69171;BME280;56279;47.902;12.308;2023-05-09T05:43:16;95595.38;;;11.23;78.06
69171;BME280;56279;47.902;12.308;2023-05-09T05:45:17;95597.78;;;11.20;78.20
69171;BME280;56279;47.902;12.308;2023-05-09T05:47:23;95594.88;;;11.16;78.29
69171;BME280;56279;47.902;12.308;2023-05-09T05:49:24;95597.53;;;11.16;78.56
69171;BME280;56279;47.902;12.308;2023-05-09T05:51:26;95590.03;;;11.33;78.31
69171;BME280;56279;47.902;12.308;2023-05-09T05:53:30;95587.19;;;11.68;77.55
69171;BME280;56279;47.902;12.308;2023-05-09T05:55:31;95592.94;;;12.04;76.41
69171;BME280;56279;47.902;12.308;2023-05-09T05:57:32;95590.44;;;12.18;75.86
69171;BME280;56279;47.902;12.308;2023-05-09T05:59:40;95594.13;;;12.17;75.38
69171;BME280;56279;47.902;12.308;2023-05-09T06:01:42;95597.66;;;12.07;75.94
69171;BME280;56279;47.902;12.308;2023-05-09T06:03:43;95592.72;;;12.01;75.85
69171;BME280;56279;47.902;12.308;2023-05-09T06:05:46;95597.75;;;11.97;76.07
69171;BME280;56279;47.902;12.308;2023-05-09T06:07:48;95591.50;;;11.88;76.27
69171;BME280;56279;47.902;12.308;2023-05-09T06:09:49;95595.25;;;11.82;76.53
69171;BME280;56279;47.902;12.308;2023-05-09T06:11:50;95591.81;;;11.82;76.61
69171;BME280;56279;47.902;12.308;2023-05-09T06:13:52;95592.56;;;11.87;76.51
69171;BME280;56279;47.902;12.308;2023-05-09T06:15:56;95594.59;;;11.95;76.23
69171;BME280;56279;47.902;12.308;2023-05-09T06:17:58;95596.31;;;12.10;75.85
69171;BME280;56279;47.902;12.308;2023-05-09T06:19:59;95589.59;;;12.22;75.75
69171;BME280;56279;47.902;12.308;2023-05-09T06:22:00;95587.97;;;12.26;75.59
69171;BME280;56279;47.902;12.308;2023-05-09T06:24:01;95592.25;;;12.22;75.52
69171;BME280;56279;47.902;12.308;2023-05-09T06:26:03;95592.00;;;12.19;75.76
69171;BME280;56279;47.902;12.308;2023-05-09T06:28:06;95588.63;;;12.13;75.56
69171;BME280;56279;47.902;12.308;2023-05-09T06:30:07;95591.81;;;12.10;75.62
69171;BME280;56279;47.902;12.308;2023-05-09T06:32:09;95585.22;;;12.08;75.82
69171;BME280;56279;47.902;12.308;2023-05-09T06:34:10;95584.19;;;12.09;75.93
69171;BME280;56279;47.902;12.308;2023-05-09T06:36:11;95577.81;;;12.10;75.73
69171;BME280;56279;47.902;12.308;2023-05-09T06:38:12;95579.16;;;12.07;75.92
69171;BME280;56279;47.902;12.308;2023-05-09T06:40:14;95580.22;;;12.06;76.24
69171;BME280;56279;47.902;12.308;2023-05-09T06:42:15;95570.72;;;12.05;76.19
69171;BME280;56279;47.902;12.308;2023-05-09T06:44:18;95572.84;;;12.03;76.46
69171;BME280;56279;47.902;12.308;2023-05-09T06:46:19;95575.50;;;12.03;76.55
69171;BME280;56279;47.902;12.308;2023-05-09T06:48:20;95575.19;;;12.05;76.60
69171;BME280;56279;47.902;12.308;2023-05-09T06:50:23;95576.00;;;12.05;76.65
69171;BME280;56279;47.902;12.308;2023-05-09T06:52:25;95575.19;;;12.05;76.96
69171;BME280;56279;47.902;12.308;2023-05-09T06:54:27;95575.72;;;12.07;76.86
69171;BME280;56279;47.902;12.308;2023-05-09T06:56:28;95577.00;;;12.09;77.17
69171;BME280;56279;47.902;12.308;2023-05-09T06:58:31;95573.03;;;12.12;77.13
69171;BME280;56279;47.902;12.308;2023-05-09T07:00:32;95578.56;;;12.15;77.26
69171;BME280;56279;47.902;12.308;2023-05-09T07:02:35;95575.63;;;12.17;77.15
69171;BME280;56279;47.902;12.308;2023-05-09T07:04:41;95567.94;;;12.20;77.19
69171;BME280;56279;47.902;12.308;2023-05-09T07:06:43;95560.50;;;12.22;77.52
69171;BME280;56279;47.902;12.308;2023-05-09T07:08:44;95550.66;;;12.23;77.56
69171;BME280;56279;47.902;12.308;2023-05-09T07:10:45;95564.16;;;12.26;77.85
69171;BME280;56279;47.902;12.308;2023-05-09T07:12:47;95551.91;;;12.30;77.96
69171;BME280;56279;47.902;12.308;2023-05-09T07:14:48;95549.22;;;12.35;78.06
69171;BME280;56279;47.902;12.308;2023-05-09T07:16:49;95544.16;;;12.39;78.06
69171;BME280;56279;47.902;12.308;2023-05-09T07:18:50;95543.31;;;12.43;78.20
69171;BME280;56279;47.902;12.308;2023-05-09T07:20:51;95549.31;;;12.49;78.08
69171;BME280;56279;47.902;12.308;2023-05-09T07:22:53;95550.63;;;12.52;78.45
69171;BME280;56279;47.902;12.308;2023-05-09T07:24:56;95545.06;;;12.53;78.54
69171;BME280;56279;47.902;12.308;2023-05-09T07:26:57;95540.53;;;12.54;78.32
69171;BME280;56279;47.902;12.308;2023-05-09T07:28:58;95537.03;;;12.58;78.50
69171;BME280;56279;47.902;12.308;2023-05-09T07:31:00;95537.47;;;12.65;78.28
69171;BME280;56279;47.902;12.308;2023-05-09T07:33:01;95534.78;;;12.70;78.40
69171;BME280;56279;47.902;12.308;2023-05-09T07:35:02;95535.50;;;12.76;78.22
69171;BME280;56279;47.902;12.308;2023-05-09T07:37:05;95535.66;;;12.84;78.59
69171;BME280;56279;47.902;12.308;2023-05-09T07:39:06;95534.66;;;12.99;78.32
69171;BME280;56279;47.902;12.308;2023-05-09T07:41:08;95534.47;;;13.14;78.26
69171;BME280;56279;47.902;12.308;2023-05-09T07:43:09;95531.69;;;13.24;78.14
69171;BME280;56279;47.902;12.308;2023-05-09T07:45:10;95531.81;;;13.33;78.00
69171;BME280;56279;47.902;12.308;2023-05-09T07:47:12;95526.44;;;13.38;77.60
69171;BME280;56279;47.902;12.308;2023-05-09T07:49:13;95523.41;;;13.44;77.63
69171;BME280;56279;47.902;12.308;2023-05-09T07:51:14;95510.66;;;13.46;77.68
69171;BME280;56279;47.902;12.308;2023-05-09T07:53:15;95511.34;;;13.52;77.46
69171;BME280;56279;47.902;12.308;2023-05-09T07:55:17;95503.81;;;13.59;77.37
69171;BME280;56279;47.902;12.308;2023-05-09T07:57:18;95503.97;;;13.67;77.61
69171;BME280;56279;47.902;12.308;2023-05-09T07:59:20;95496.41;;;13.74;77.28
69171;BME280;56279;47.902;12.308;2023-05-09T08:01:21;95507.91;;;13.83;77.58
69171;BME280;56279;47.902;12.308;2023-05-09T08:03:22;95501.66;;;13.93;77.37
69171;BME280;56279;47.902;12.308;2023-05-09T08:05:24;95507.84;;;14.02;77.23
69171;BME280;56279;47.902;12.308;2023-05-09T08:07:26;95501.06;;;14.10;76.77
69171;BME280;56279;47.902;12.308;2023-05-09T08:09:28;95500.69;;;14.16;76.27
69171;BME280;56279;47.902;12.308;2023-05-09T08:11:32;95506.47;;;14.18;75.92
69171;BME280;56279;47.902;12.308;2023-05-09T08:13:34;95495.25;;;14.21;75.88
69171;BME280;56279;47.902;12.308;2023-05-09T08:15:35;95491.13;;;14.29;75.72
69171;BME280;56279;47.902;12.308;2023-05-09T08:17:38;95482.91;;;14.30;75.66
69171;BME280;56279;47.902;12.308;2023-05-09T08:19:39;95492.84;;;14.38;76.19
69171;BME280;56279;47.902;12.308;2023-05-09T08:21:40;95482.13;;;14.43;76.53
69171;BME280;56279;47.902;12.308;2023-05-09T08:23:41;95479.25;;;14.53;76.04
69171;BME280;56279;47.902;12.308;2023-05-09T08:25:43;95470.78;;;14.65;75.65
69171;BME280;56279;47.902;12.308;2023-05-09T08:27:44;95474.19;;;14.79;75.98
69171;BME280;56279;47.902;12.308;2023-05-09T08:29:45;95470.41;;;14.94;75.88
69171;BME280;56279;47.902;12.308;2023-05-09T08:31:48;95467.84;;;15.02;75.33
69171;BME280;56279;47.902;12.308;2023-05-09T08:33:50;95468.19;;;15.09;75.73
69171;BME280;56279;47.902;12.308;2023-05-09T08:35:54;95457.72;;;15.13;75.63
69171;BME280;56279;47.902;12.308;2023-05-09T08:37:56;95463.72;;;15.18;75.10
69171;BME280;56279;47.902;12.308;2023-05-09T08:39:57;95457.50;;;15.23;74.79
69171;BME280;56279;47.902;12.308;2023-05-09T08:42:00;95455.22;;;15.30;74.40
69171;BME280;56279;47.902;12.308;2023-05-09T08:44:02;95456.53;;;15.41;74.21
69171;BME280;56279;47.902;12.308;2023-05-09T08:46:08;95454.63;;;15.55;73.78
69171;BME280;56279;47.902;12.308;2023-05-09T08:48:10;95451.06;;;15.68;73.28
69171;BME280;56279;47.902;12.308;2023-05-09T08:50:12;95451.63;;;15.79;73.21
69171;BME280;56279;47.902;12.308;2023-05-09T08:52:15;95438.81;;;15.89;72.53
69171;BME280;56279;47.902;12.308;2023-05-09T08:54:18;95442.13;;;15.95;72.10
69171;BME280;56279;47.902;12.308;2023-05-09T08:56:19;95446.41;;;16.05;72.02
69171;BME280;56279;47.902;12.308;2023-05-09T08:58:21;95443.94;;;16.17;71.24
69171;BME280;56279;47.902;12.308;2023-05-09T09:00:24;95450.69;;;16.23;70.84
69171;BME280;56279;47.902;12.308;2023-05-09T09:02:26;95444.91;;;16.29;70.37
69171;BME280;56279;47.902;12.308;2023-05-09T09:04:27;95450.09;;;16.34;70.16
69171;BME280;56279;47.902;12.308;2023-05-09T09:06:29;95445.88;;;16.33;70.14
69171;BME280;56279;47.902;12.308;2023-05-09T09:08:34;95438.84;;;16.37;70.04
69171;BME280;56279;47.902;12.308;2023-05-09T09:10:39;95432.91;;;16.40;69.49
69171;BME280;56279;47.902;12.308;2023-05-09T09:12:41;95428.19;;;16.46;69.28
69171;BME280;56279;47.902;12.308;2023-05-09T09:14:47;95427.56;;;16.49;69.36
69171;BME280;56279;47.902;12.308;2023-05-09T09:16:52;95420.88;;;16.60;69.67
69171;BME280;56279;47.902;12.308;2023-05-09T09:18:55;95421.50;;;16.74;68.83
69171;BME280;56279;47.902;12.308;2023-05-09T09:21:05;95415.25;;;16.87;68.55
69171;BME280;56279;47.902;12.308;2023-05-09T09:23:08;95405.69;;;16.95;68.49
69171;BME280;56279;47.902;12.308;2023-05-09T09:25:10;95400.66;;;17.02;68.52
69171;BME280;56279;47.902;12.308;2023-05-09T09:27:12;95400.03;;;17.05;68.93
69171;BME280;56279;47.902;12.308;2023-05-09T09:29:14;95399.41;;;17.08;69.05
69171;BME280;56279;47.902;12.308;2023-05-09T09:31:25;95388.56;;;17.13;69.04
69171;BME280;56279;47.902;12.308;2023-05-09T09:33:28;95382.28;;;17.09;68.67
69171;BME280;56279;47.902;12.308;2023-05-09T09:35:37;95377.78;;;17.01;68.81
69171;BME280;56279;47.902;12.308;2023-05-09T09:37:39;95376.97;;;17.00;69.38
69171;BME280;56279;47.902;12.308;2023-05-09T09:39:52;95377.28;;;17.07;69.05
69171;BME280;56279;47.902;12.308;2023-05-09T09:42:08;95373.34;;;17.13;68.87
69171;BME280;56279;47.902;12.308;2023-05-09T09:44:19;95376.00;;;17.13;68.61
69171;BME280;56279;47.902;12.308;2023-05-09T09:46:23;95368.97;;;17.09;68.27
69171;BME280;56279;47.902;12.308;2023-05-09T09:48:32;95370.22;;;17.11;68.81
69171;BME280;56279;47.902;12.308;2023-05-09T09:50:34;95367.72;;;17.15;68.33
69171;BME280;56279;47.902;12.308;2023-05-09T09:52:35;95361.59;;;17.14;68.45
69171;BME280;56279;47.902;12.308;2023-05-09T09:54:37;95360.31;;;17.20;69.04
69171;BME280;56279;47.902;12.308;2023-05-09T09:56:40;95352.94;;;17.26;69.84
69171;BME280;56279;47.902;12.308;2023-05-09T09:58:41;95348.97;;;17.32;68.73
69171;BME280;56279;47.902;12.308;2023-05-09T10:00:44;95346.78;;;17.34;69.07
69171;BME280;56279;47.902;12.308;2023-05-09T10:02:50;95339.56;;;17.35;69.30
69171;BME280;56279;47.902;12.308;2023-05-09T10:04:52;95350.06;;;17.40;69.97
69171;BME280;56279;47.902;12.308;2023-05-09T10:06:58;95334.69;;;17.45;70.28
69171;BME280;56279;47.902;12.308;2023-05-09T10:09:00;95338.75;;;17.51;69.77
69171;BME280;56279;47.902;12.308;2023-05-09T10:11:01;95346.72;;;17.60;69.81
69171;BME280;56279;47.902;12.308;2023-05-09T10:13:08;95337.63;;;17.61;69.54
69171;BME280;56279;47.902;12.308;2023-05-09T10:15:11;95337.75;;;17.64;69.61
69171;BME280;56279;47.902;12.308;2023-05-09T10:17:14;95328.31;;;17.67;69.50
69171;BME280;56279;47.902;12.308;2023-05-09T10:19:17;95330.38;;;17.70;69.46
69171;BME280;56279;47.902;12.308;2023-05-09T10:21:19;95321.72;;;17.73;69.90
69171;BME280;56279;47.902;12.308;2023-05-09T10:23:22;95329.22;;;17.79;69.89
69171;BME280;56279;47.902;12.308;2023-05-09T10:25:28;95320.41;;;17.87;68.46
69171;BME280;56279;47.902;12.308;2023-05-09T10:27:35;95326.00;;;17.94;69.25
69171;BME280;56279;47.902;12.308;2023-05-09T10:32:26;95312.16;;;18.01;68.05
69171;BME280;56279;47.902;12.308;2023-05-09T10:34:32;95304.59;;;18.03;67.02
69171;BME280;56279;47.902;12.308;2023-05-09T10:36:35;95298.78;;;18.01;67.53
69171;BME280;56279;47.902;12.308;2023-05-09T10:38:37;95295.34;;;18.01;67.70
69171;BME280;56279;47.902;12.308;2023-05-09T10:40:39;95296.59;;;18.03;68.12
69171;BME280;56279;47.902;12.308;2023-05-09T10:42:42;95299.81;;;18.09;67.15
69171;BME280;56279;47.902;12.308;2023-05-09T10:44:45;95298.91;;;18.05;66.59
69171;BME280;56279;47.902;12.308;2023-05-09T10:46:46;95289.66;;;18.02;66.31
69171;BME280;56279;47.902;12.308;2023-05-09T10:48:49;95285.44;;;18.01;66.85
69171;BME280;56279;47.902;12.308;2023-05-09T10:50:51;95291.34;;;18.07;66.59
69171;BME280;56279;47.902;12.308;2023-05-09T10:55:08;95273.59;;;18.11;65.95
69171;BME280;56279;47.902;12.308;2023-05-09T10:57:09;95276.38;;;18.14;66.32
69171;BME280;56279;47.902;12.308;2023-05-09T10:59:34;95271.31;;;18.21;66.31
69171;BME280;56279;47.902;12.308;2023-05-09T11:01:37;95261.66;;;18.29;65.83
69171;BME280;56279;47.902;12.308;2023-05-09T11:03:53;95265.69;;;18.35;66.17
69171;BME280;56279;47.902;12.308;2023-05-09T11:05:56;95264.06;;;18.42;65.49
69171;BME280;56279;47.902;12.308;2023-05-09T11:10:17;95258.66;;;18.51;65.53